PWSweather.com
Personal Weather Stations
Station Observations
COONRAPIDS
Minneapolis, MN 55433

Minneapolis, MN 55433

Lat: 45.187721, Lon: -93.36828

Elevation: 898

Station Type: Davis Vantage Pro 2

Latest ConditionsUpdated 4:40:01 PM CDT Saturday, Apr 25, 2015
Currently Today's Max Today's Min Today's Average
Temperature 62.5°F16.9°C 63.1°F17.3°C 43.0°F6.1°C 49.5°F9.7°C
Dew Point 15.6°F-9.1°C 36.9°F2.7°C 15.6°F-9.1°C 33.4°F0.8°C
Winds 5.5 mph NE8.9 kmh NE 6.4 mph NE10.3 kmh NE - 1.7 mph 2.7 kmh
Wind Gusts 11.0 mph17.7 kmh 13.0 mph20.9 kmh - -
Humidity 16% 74% 16% 58%
Pressure 29.77 in1008.1 mb 29.81 in1009.5 mb 29.73 in1006.8 mb -
Hour Temp Dew Point Humidity Winds Wind Gusts Pressure Precip Precip Rate Daily Precip Total
04:40 PM 62.5°F16.9°C 15.6°F-9.1°C 16% 5.5 mph NE8.9 kmh NE 11.0 mph17.7 kmh 29.77 in1008.1 mb - 0.00 in0.0 mm 0.00 in0.0 mm
04:30 PM 62.9°F17.2°C 16.0°F-8.9°C 16% 4.0 mph NE6.4 kmh NE 5.0 mph8.0 kmh 29.77 in1008.1 mb - 0.00 in0.0 mm 0.00 in0.0 mm
04:20 PM 63.1°F17.3°C 18.9°F-7.3°C 18% 1.7 mph NE2.7 kmh NE 6.0 mph9.7 kmh 29.77 in1008.1 mb - 0.00 in0.0 mm 0.00 in0.0 mm
04:10 PM 63.0°F17.2°C 18.8°F-7.3°C 18% 0.5 mph ENE0.8 kmh ENE 5.0 mph8.0 kmh 29.77 in1008.1 mb - 0.00 in0.0 mm 0.00 in0.0 mm
04:00 PM 62.3°F16.8°C 20.7°F-6.3°C 20% 3.4 mph E5.5 kmh E 10.0 mph16.1 kmh 29.77 in1008.1 mb - 0.00 in0.0 mm 0.00 in0.0 mm
03:50 PM 62.5°F16.9°C 20.8°F-6.2°C 20% 2.8 mph E4.5 kmh E 7.0 mph11.3 kmh 29.77 in1008.1 mb - 0.00 in0.0 mm 0.00 in0.0 mm
03:40 PM 62.1°F16.7°C 23.8°F-4.6°C 23% 2.7 mph NE4.3 kmh NE 13.0 mph20.9 kmh 29.77 in1008.1 mb - 0.00 in0.0 mm 0.00 in0.0 mm
03:30 PM 61.8°F16.6°C 27.5°F-2.5°C 27% 1.5 mph NE2.4 kmh NE 9.0 mph14.5 kmh 29.77 in1008.1 mb - 0.00 in0.0 mm 0.00 in0.0 mm
03:20 PM 61.5°F16.4°C 25.3°F-3.7°C 25% 2.1 mph ENE3.4 kmh ENE 5.0 mph8.0 kmh 29.77 in1008.1 mb - 0.00 in0.0 mm 0.00 in0.0 mm
03:10 PM 61.6°F16.4°C 27.3°F-2.6°C 27% 3.8 mph NE6.1 kmh NE 7.0 mph11.3 kmh 29.77 in1008.1 mb - 0.00 in0.0 mm 0.00 in0.0 mm
03:00 PM 62.2°F16.8°C 27.8°F-2.3°C 27% 6.4 mph NE10.3 kmh NE 10.0 mph16.1 kmh 29.77 in1008.1 mb - 0.00 in0.0 mm 0.00 in0.0 mm
02:50 PM 60.8°F16.0°C 29.1°F-1.6°C 30% Calm Calm -- 29.77 in1008.1 mb - 0.00 in0.0 mm 0.00 in0.0 mm
02:40 PM 60.8°F16.0°C 29.1°F-1.6°C 30% 1.8 mph SE2.9 kmh SE 2.0 mph3.2 kmh 29.77 in1008.1 mb - 0.00 in0.0 mm 0.00 in0.0 mm
02:30 PM 60.4°F15.8°C 29.6°F-1.3°C 31% 3.3 mph NE5.3 kmh NE 10.0 mph16.1 kmh 29.77 in1008.1 mb - 0.00 in0.0 mm 0.00 in0.0 mm
02:20 PM 60.1°F15.6°C 30.1°F-1.1°C 32% 3.5 mph NE5.6 kmh NE 8.0 mph12.9 kmh 29.77 in1008.1 mb - 0.00 in0.0 mm 0.00 in0.0 mm
02:10 PM 60.3°F15.7°C 30.3°F-0.9°C 32% 4.5 mph E7.2 kmh E 5.0 mph8.0 kmh 29.77 in1008.1 mb - 0.00 in0.0 mm 0.00 in0.0 mm
02:00 PM 59.7°F15.4°C 32.0°F0.0°C 35% 2.5 mph E4.0 kmh E 3.0 mph4.8 kmh 29.77 in1008.1 mb - 0.00 in0.0 mm 0.00 in0.0 mm
01:50 PM 59.3°F15.2°C 32.3°F0.2°C 36% 0.6 mph ENE1.0 kmh ENE -- 29.77 in1008.1 mb - 0.00 in0.0 mm 0.00 in0.0 mm
01:40 PM 59.1°F15.1°C 33.5°F0.8°C 38% 1.4 mph E2.3 kmh E 8.0 mph12.9 kmh 29.77 in1008.1 mb - 0.00 in0.0 mm 0.00 in0.0 mm
01:30 PM 58.3°F14.6°C 32.1°F0.1°C 37% 2.6 mph ENE4.2 kmh ENE 10.0 mph16.1 kmh 29.78 in1008.5 mb - 0.00 in0.0 mm 0.00 in0.0 mm
01:20 PM 57.5°F14.2°C 32.7°F0.4°C 39% 0.4 mph ESE0.6 kmh ESE 3.0 mph4.8 kmh 29.78 in1008.5 mb - 0.00 in0.0 mm 0.00 in0.0 mm
01:10 PM 57.5°F14.2°C 33.9°F1.1°C 41% 2.5 mph ENE4.0 kmh ENE 8.0 mph12.9 kmh 29.78 in1008.5 mb - 0.00 in0.0 mm 0.00 in0.0 mm
01:00 PM 56.7°F13.7°C 33.8°F1.0°C 42% Calm Calm -- 29.78 in1008.5 mb - 0.00 in0.0 mm 0.00 in0.0 mm
12:50 PM 56.6°F13.7°C 33.1°F0.6°C 41% 1.7 mph ENE2.7 kmh ENE 5.0 mph8.0 kmh 29.78 in1008.5 mb - 0.00 in0.0 mm 0.00 in0.0 mm
12:40 PM 56.0°F13.3°C 33.8°F1.0°C 43% 4.2 mph NE6.8 kmh NE 7.0 mph11.3 kmh 29.78 in1008.5 mb - 0.00 in0.0 mm 0.00 in0.0 mm
12:30 PM 56.4°F13.6°C 34.7°F1.5°C 44% 5.5 mph NE8.9 kmh NE 13.0 mph20.9 kmh 29.79 in1008.8 mb - 0.00 in0.0 mm 0.00 in0.0 mm
12:20 PM 55.0°F12.8°C 34.6°F1.4°C 46% 4.3 mph NE6.9 kmh NE 7.0 mph11.3 kmh 29.79 in1008.8 mb - 0.00 in0.0 mm 0.00 in0.0 mm
12:10 PM 54.1°F12.3°C 33.2°F0.7°C 45% 1.6 mph NE2.6 kmh NE 8.0 mph12.9 kmh 29.79 in1008.8 mb - 0.00 in0.0 mm 0.00 in0.0 mm
12:00 PM 53.2°F11.8°C 33.5°F0.8°C 47% 2.9 mph NE4.7 kmh NE 6.0 mph9.7 kmh 29.80 in1009.1 mb - 0.00 in0.0 mm 0.00 in0.0 mm
11:50 AM 52.2°F11.2°C 33.1°F0.6°C 48% 3.0 mph E4.8 kmh E 9.0 mph14.5 kmh 29.80 in1009.1 mb - 0.00 in0.0 mm 0.00 in0.0 mm
11:40 AM 50.8°F10.4°C 32.8°F0.4°C 50% 2.4 mph E3.9 kmh E 8.0 mph12.9 kmh 29.81 in1009.5 mb - 0.00 in0.0 mm 0.00 in0.0 mm
11:30 AM 51.0°F10.6°C 32.5°F0.3°C 49% 4.2 mph E6.8 kmh E 8.0 mph12.9 kmh 29.81 in1009.5 mb - 0.00 in0.0 mm 0.00 in0.0 mm
11:20 AM 51.2°F10.7°C 32.7°F0.4°C 49% 1.0 mph ENE1.6 kmh ENE 5.0 mph8.0 kmh 29.80 in1009.1 mb - 0.00 in0.0 mm 0.00 in0.0 mm
11:10 AM 51.5°F10.8°C 33.0°F0.6°C 49% 3.7 mph E6.0 kmh E 7.0 mph11.3 kmh 29.80 in1009.1 mb - 0.00 in0.0 mm 0.00 in0.0 mm
11:00 AM 51.2°F10.7°C 33.7°F0.9°C 51% 0.2 mph E0.3 kmh E -- 29.80 in1009.1 mb - 0.00 in0.0 mm 0.00 in0.0 mm
10:50 AM 50.8°F10.4°C 33.8°F1.0°C 52% 4.0 mph E6.4 kmh E 9.0 mph14.5 kmh 29.80 in1009.1 mb - 0.00 in0.0 mm 0.00 in0.0 mm
10:40 AM 50.4°F10.2°C 33.9°F1.1°C 53% 3.1 mph E5.0 kmh E 5.0 mph8.0 kmh 29.80 in1009.1 mb - 0.00 in0.0 mm 0.00 in0.0 mm
10:30 AM 50.1°F10.1°C 34.1°F1.2°C 54% 3.8 mph ESE6.1 kmh ESE 8.0 mph12.9 kmh 29.80 in1009.1 mb - 0.00 in0.0 mm 0.00 in0.0 mm
10:20 AM 49.8°F9.9°C 34.7°F1.5°C 56% 0.6 mph ENE1.0 kmh ENE 7.0 mph11.3 kmh 29.79 in1008.8 mb - 0.00 in0.0 mm 0.00 in0.0 mm
10:10 AM 49.2°F9.6°C 34.6°F1.4°C 57% 0.5 mph E0.8 kmh E 5.0 mph8.0 kmh 29.79 in1008.8 mb - 0.00 in0.0 mm 0.00 in0.0 mm
10:00 AM 48.8°F9.3°C 34.2°F1.2°C 57% 1.8 mph E2.9 kmh E 7.0 mph11.3 kmh 29.80 in1009.1 mb - 0.00 in0.0 mm 0.00 in0.0 mm
09:50 AM 49.0°F9.4°C 34.9°F1.6°C 58% 4.5 mph E7.2 kmh E 7.0 mph11.3 kmh 29.80 in1009.1 mb - 0.00 in0.0 mm 0.00 in0.0 mm
09:40 AM 47.9°F8.8°C 35.5°F1.9°C 62% 0.3 mph ENE0.5 kmh ENE 4.0 mph6.4 kmh 29.79 in1008.8 mb - 0.00 in0.0 mm 0.00 in0.0 mm
09:30 AM 47.2°F8.4°C 35.2°F1.8°C 63% Calm Calm -- 29.79 in1008.8 mb - 0.00 in0.0 mm 0.00 in0.0 mm
09:20 AM 46.7°F8.2°C 34.8°F1.6°C 63% 2.8 mph ESE4.5 kmh ESE 7.0 mph11.3 kmh 29.78 in1008.5 mb - 0.00 in0.0 mm 0.00 in0.0 mm
09:10 AM 46.4°F8.0°C 35.6°F2.0°C 66% Calm Calm -- 29.78 in1008.5 mb - 0.00 in0.0 mm 0.00 in0.0 mm
09:00 AM 45.5°F7.5°C 35.2°F1.8°C 67% 1.6 mph ENE2.6 kmh ENE 2.0 mph3.2 kmh 29.78 in1008.5 mb - 0.00 in0.0 mm 0.00 in0.0 mm
08:50 AM 44.4°F6.9°C 34.8°F1.6°C 69% 1.3 mph E2.1 kmh E 5.0 mph8.0 kmh 29.78 in1008.5 mb - 0.00 in0.0 mm 0.00 in0.0 mm
08:40 AM 43.7°F6.5°C 34.9°F1.6°C 71% Calm Calm -- 29.78 in1008.5 mb - 0.00 in0.0 mm 0.00 in0.0 mm
08:30 AM 43.4°F6.3°C 34.6°F1.4°C 71% 1.4 mph ENE2.3 kmh ENE 3.0 mph4.8 kmh 29.79 in1008.8 mb - 0.00 in0.0 mm 0.00 in0.0 mm
08:20 AM 43.3°F6.3°C 34.9°F1.6°C 72% 1.4 mph E2.3 kmh E 4.0 mph6.4 kmh 29.79 in1008.8 mb - 0.00 in0.0 mm 0.00 in0.0 mm
08:10 AM 43.3°F6.3°C 34.9°F1.6°C 72% 0.1 mph E0.2 kmh E -- 29.78 in1008.5 mb - 0.00 in0.0 mm 0.00 in0.0 mm
08:00 AM 43.2°F6.2°C 35.1°F1.7°C 73% 2.0 mph E3.2 kmh E 3.0 mph4.8 kmh 29.78 in1008.5 mb - 0.00 in0.0 mm 0.00 in0.0 mm
07:50 AM 43.2°F6.2°C 35.1°F1.7°C 73% Calm Calm 1.0 mph1.6 kmh 29.77 in1008.1 mb - 0.00 in0.0 mm 0.00 in0.0 mm
07:40 AM 43.1°F6.2°C 35.0°F1.7°C 73% 0.2 mph E0.3 kmh E 1.0 mph1.6 kmh 29.77 in1008.1 mb - 0.00 in0.0 mm 0.00 in0.0 mm
07:30 AM 43.0°F6.1°C 34.9°F1.6°C 73% 1.9 mph E3.1 kmh E 3.0 mph4.8 kmh 29.77 in1008.1 mb - 0.00 in0.0 mm 0.00 in0.0 mm
07:20 AM 43.0°F6.1°C 34.9°F1.6°C 73% 3.1 mph ENE5.0 kmh ENE 6.0 mph9.7 kmh 29.77 in1008.1 mb - 0.00 in0.0 mm 0.00 in0.0 mm
07:10 AM 43.1°F6.2°C 35.0°F1.7°C 73% 0.6 mph ESE1.0 kmh ESE -- 29.77 in1008.1 mb - 0.00 in0.0 mm 0.00 in0.0 mm
07:00 AM 43.1°F6.2°C 35.4°F1.9°C 74% 2.1 mph ENE3.4 kmh ENE 3.0 mph4.8 kmh 29.76 in1007.8 mb - 0.00 in0.0 mm 0.00 in0.0 mm
06:50 AM 43.1°F6.2°C 35.4°F1.9°C 74% 1.2 mph E1.9 kmh E 5.0 mph8.0 kmh 29.76 in1007.8 mb - 0.00 in0.0 mm 0.00 in0.0 mm
06:40 AM 43.2°F6.2°C 35.5°F1.9°C 74% 1.5 mph E2.4 kmh E 4.0 mph6.4 kmh 29.75 in1007.5 mb - 0.00 in0.0 mm 0.00 in0.0 mm
06:30 AM 43.2°F6.2°C 35.5°F1.9°C 74% 0.6 mph E1.0 kmh E -- 29.75 in1007.5 mb - 0.00 in0.0 mm 0.00 in0.0 mm
06:20 AM 43.2°F6.2°C 35.4°F1.9°C 74% 2.5 mph E4.0 kmh E 3.0 mph4.8 kmh 29.75 in1007.5 mb - 0.00 in0.0 mm 0.00 in0.0 mm
06:10 AM 43.2°F6.2°C 35.5°F1.9°C 74% Calm Calm -- 29.75 in1007.5 mb - 0.00 in0.0 mm 0.00 in0.0 mm
06:00 AM 43.2°F6.2°C 35.5°F1.9°C 74% 0.2 mph E0.3 kmh E 2.0 mph3.2 kmh 29.75 in1007.5 mb - 0.00 in0.0 mm 0.00 in0.0 mm
05:50 AM 43.2°F6.2°C 35.5°F1.9°C 74% Calm Calm 1.0 mph1.6 kmh 29.75 in1007.5 mb - 0.00 in0.0 mm 0.00 in0.0 mm
05:40 AM 43.2°F6.2°C 35.5°F1.9°C 74% Calm Calm -- 29.75 in1007.5 mb - 0.00 in0.0 mm 0.00 in0.0 mm
05:30 AM 43.2°F6.2°C 35.5°F1.9°C 74% 2.4 mph E3.9 kmh E 5.0 mph8.0 kmh 29.75 in1007.5 mb - 0.00 in0.0 mm 0.00 in0.0 mm
05:20 AM 43.2°F6.2°C 35.5°F1.9°C 74% 0.1 mph E0.2 kmh E 3.0 mph4.8 kmh 29.75 in1007.5 mb - 0.00 in0.0 mm 0.00 in0.0 mm
05:10 AM 43.2°F6.2°C 35.5°F1.9°C 74% 0.1 mph ESE0.2 kmh ESE 1.0 mph1.6 kmh 29.75 in1007.5 mb - 0.00 in0.0 mm 0.00 in0.0 mm
05:00 AM 43.3°F6.3°C 35.6°F2.0°C 74% 1.7 mph E2.7 kmh E 2.0 mph3.2 kmh 29.75 in1007.5 mb - 0.00 in0.0 mm 0.00 in0.0 mm
04:50 AM 43.4°F6.3°C 35.6°F2.0°C 74% 3.3 mph E5.3 kmh E 5.0 mph8.0 kmh 29.75 in1007.5 mb - 0.00 in0.0 mm 0.00 in0.0 mm
04:40 AM 43.5°F6.4°C 35.8°F2.1°C 74% Calm Calm -- 29.75 in1007.5 mb - 0.00 in0.0 mm 0.00 in0.0 mm
04:30 AM 43.6°F6.4°C 35.9°F2.2°C 74% Calm Calm -- 29.75 in1007.5 mb - 0.00 in0.0 mm 0.00 in0.0 mm
04:20 AM 43.8°F6.6°C 36.0°F2.2°C 74% Calm Calm 1.0 mph1.6 kmh 29.75 in1007.5 mb - 0.00 in0.0 mm 0.00 in0.0 mm
04:10 AM 43.9°F6.6°C 35.8°F2.1°C 73% 2.1 mph ESE3.4 kmh ESE 5.0 mph8.0 kmh 29.74 in1007.1 mb - 0.00 in0.0 mm 0.00 in0.0 mm
04:00 AM 44.0°F6.7°C 35.9°F2.2°C 73% 1.1 mph ESE1.8 kmh ESE 6.0 mph9.7 kmh 29.74 in1007.1 mb - 0.00 in0.0 mm 0.00 in0.0 mm
03:50 AM 44.1°F6.7°C 36.0°F2.2°C 73% 1.1 mph E1.8 kmh E 5.0 mph8.0 kmh 29.74 in1007.1 mb - 0.00 in0.0 mm 0.00 in0.0 mm
03:40 AM 44.3°F6.8°C 36.2°F2.3°C 73% Calm Calm -- 29.74 in1007.1 mb - 0.00 in0.0 mm 0.00 in0.0 mm
03:30 AM 44.5°F6.9°C 36.0°F2.2°C 72% 2.0 mph ESE3.2 kmh ESE 2.0 mph3.2 kmh 29.74 in1007.1 mb - 0.00 in0.0 mm 0.00 in0.0 mm
03:20 AM 44.7°F7.1°C 36.2°F2.3°C 72% 1.2 mph E1.9 kmh E 2.0 mph3.2 kmh 29.74 in1007.1 mb - 0.00 in0.0 mm 0.00 in0.0 mm
03:10 AM 44.8°F7.1°C 36.0°F2.2°C 71% 0.2 mph ESE0.3 kmh ESE -- 29.74 in1007.1 mb - 0.00 in0.0 mm 0.00 in0.0 mm
03:00 AM 44.8°F7.1°C 36.3°F2.4°C 72% 3.2 mph E5.1 kmh E 5.0 mph8.0 kmh 29.74 in1007.1 mb - 0.00 in0.0 mm 0.00 in0.0 mm
02:50 AM 44.9°F7.2°C 36.1°F2.3°C 71% 0.9 mph SE1.4 kmh SE 2.0 mph3.2 kmh 29.74 in1007.1 mb - 0.00 in0.0 mm 0.00 in0.0 mm
02:40 AM 44.9°F7.2°C 36.1°F2.3°C 71% Calm Calm -- 29.74 in1007.1 mb - 0.00 in0.0 mm 0.00 in0.0 mm
02:30 AM 45.0°F7.2°C 36.2°F2.3°C 71% 2.9 mph ESE4.7 kmh ESE 4.0 mph6.4 kmh 29.74 in1007.1 mb - 0.00 in0.0 mm 0.00 in0.0 mm
02:20 AM 45.1°F7.3°C 35.9°F2.2°C 70% Calm Calm -- 29.74 in1007.1 mb - 0.00 in0.0 mm 0.00 in0.0 mm
02:10 AM 45.1°F7.3°C 35.9°F2.2°C 70% Calm Calm -- 29.75 in1007.5 mb - 0.00 in0.0 mm 0.00 in0.0 mm
02:00 AM 45.2°F7.3°C 36.0°F2.2°C 70% 0.9 mph SE1.4 kmh SE -- 29.74 in1007.1 mb - 0.00 in0.0 mm 0.00 in0.0 mm
01:50 AM 45.2°F7.3°C 36.0°F2.2°C 70% 2.1 mph SE3.4 kmh SE 3.0 mph4.8 kmh 29.73 in1006.8 mb - 0.00 in0.0 mm 0.00 in0.0 mm
01:40 AM 45.3°F7.4°C 36.1°F2.3°C 70% 0.1 mph SE0.2 kmh SE -- 29.73 in1006.8 mb - 0.00 in0.0 mm 0.00 in0.0 mm
01:30 AM 45.4°F7.4°C 36.2°F2.3°C 70% 2.8 mph E4.5 kmh E 6.0 mph9.7 kmh 29.73 in1006.8 mb - 0.00 in0.0 mm 0.00 in0.0 mm
01:20 AM 45.5°F7.5°C 36.3°F2.4°C 70% 0.7 mph ESE1.1 kmh ESE -- 29.74 in1007.1 mb - 0.00 in0.0 mm 0.00 in0.0 mm
01:10 AM 45.7°F7.6°C 36.4°F2.4°C 70% Calm Calm -- 29.74 in1007.1 mb - 0.00 in0.0 mm 0.00 in0.0 mm
01:00 AM 45.8°F7.7°C 36.6°F2.6°C 70% 1.3 mph SE2.1 kmh SE 2.0 mph3.2 kmh 29.74 in1007.1 mb - 0.00 in0.0 mm 0.00 in0.0 mm
12:50 AM 45.9°F7.7°C 36.7°F2.6°C 70% Calm Calm -- 29.74 in1007.1 mb - 0.00 in0.0 mm 0.00 in0.0 mm
12:40 AM 45.9°F7.7°C 36.7°F2.6°C 70% Calm Calm -- 29.74 in1007.1 mb - 0.00 in0.0 mm 0.00 in0.0 mm
12:30 AM 45.9°F7.7°C 36.7°F2.6°C 70% 2.2 mph ESE3.5 kmh ESE 4.0 mph6.4 kmh 29.74 in1007.1 mb - 0.00 in0.0 mm 0.00 in0.0 mm
12:20 AM 45.9°F7.7°C 36.7°F2.6°C 70% 1.7 mph ESE2.7 kmh ESE 5.0 mph8.0 kmh 29.74 in1007.1 mb - 0.00 in0.0 mm 0.00 in0.0 mm
12:10 AM 46.0°F7.8°C 36.8°F2.7°C 70% 0.6 mph SE1.0 kmh SE -- 29.73 in1006.8 mb - 0.00 in0.0 mm 0.00 in0.0 mm
12:00 AM 46.1°F7.8°C 36.9°F2.7°C 70% 1.7 mph ESE2.7 kmh ESE 6.0 mph9.7 kmh 29.73 in1006.8 mb - 0.00 in0.0 mm 0.00 in0.0 mm